Seznam meteostanic stanic Slunecno.cz
Reklama
Líbí se Vám tento web? Budeme velmi rádi, pokud přidáte hodnocení +1

Seznam meteostanic a jejich METAR

Vyhledat místa podle abecedy:
A B C D E F G H I J K L M N O P Q R S T U V W X Y Z

Filtrovat:

ID stanice:
a/nebo
Název místa (fulltext):
 
Místo (ID)Naposledy načteno 
Brno - Tuřany (Brno/Tu) 17.08.2018 09:00 UTC Zobrazit data
Místo: Brno - Tuřany
Teplota: 26 °C (pocitová: 27.6 °C)
Vítr: 1 m/s z(e) 340°
Počasí: skorojasno
Dohlednost: 45 km
Zákl. oblačnosti: 1/8 1500 m
Vlhkost: 42%
Červená - Opava (Cervena/uL) 17.08.2018 09:00 UTC Zobrazit data
Místo: Červená - Opava
Teplota: 23 °C (pocitová: 23.3 °C)
Vítr: 3 m/s z(e) 220°
Počasí: skorojasno
Dohlednost: 60 km
Zákl. oblačnosti: 1/8 1230 m
Vlhkost: 41%
České Budějovice (C.Budej/po) 17.08.2018 09:00 UTC Zobrazit data
Místo: České Budějovice
Teplota: 24 °C (pocitová: 24.9 °C)
Vítr: 2 m/s z(e) 340°
Počasí:
Dohlednost: 35 km
Zákl. oblačnosti: N/A
Vlhkost: 50%
Cheb (Cheb) 17.08.2018 09:00 UTC Zobrazit data
Místo: Cheb
Teplota: 26 °C (pocitová: 27.6 °C)
Vítr: 1 m/s z(e) 0°
Počasí: oblačno
Dohlednost: 45 km
Zákl. oblačnosti: 1/8 1800 m;3/8 9000 m
Vlhkost: 39%
Chotusice - Čáslav (Caslav) 17.08.2018 09:00 UTC Zobrazit data
Místo: Chotusice - Čáslav
Teplota: 26 °C (pocitová: 27.5 °C)
Vítr: 2 m/s z(e) 330°
Počasí: skorojasno
Dohlednost: 20 km
Zákl. oblačnosti: 1/8 1500 m
Vlhkost: 45%
Churáňov (Churanov) 17.08.2018 09:00 UTC Zobrazit data
Místo: Churáňov
Teplota: 19 °C (pocitová: 18.5 °C)
Vítr: 2 m/s z(e) 0°
Počasí: oblačno
Dohlednost: 40 km
Zákl. oblačnosti: 3/8 6900 m
Vlhkost: 52%
Doksany - Litoměřice (Doksany) 17.08.2018 09:00 UTC Zobrazit data
Místo: Doksany - Litoměřice
Teplota: 25 °C (pocitová: 26.4 °C)
Vítr: 1 m/s z(e) 0°
Počasí: oblačno
Dohlednost: 60 km
Zákl. oblačnosti: 1/8 1050 m;3/8 6300 m
Vlhkost: 42%
Dukovany (Dukovany) 17.08.2018 09:00 UTC Zobrazit data
Místo: Dukovany
Teplota: 25 °C (pocitová: 25.7 °C)
Vítr: 5 m/s z(e) 110°
Počasí: skorojasno
Dohlednost: 35 km
Zákl. oblačnosti: 1/8 1500 m
Vlhkost: 42%
Holešov (Holesov) 17.08.2018 09:00 UTC Zobrazit data
Místo: Holešov
Teplota: 27 °C (pocitová: 28.7 °C)
Vítr: 2 m/s z(e) 240°
Počasí: skorojasno
Dohlednost: 45 km
Zákl. oblačnosti: 1/8 1500 m
Vlhkost: 48%
Kadaň - Tušimice (Tusimice) 17.08.2018 09:00 UTC Zobrazit data
Místo: Kadaň - Tušimice
Teplota: 25 °C (pocitová: 26.2 °C)
Vítr: 2 m/s z(e) 0°
Počasí: skorojasno
Dohlednost: 30 km
Zákl. oblačnosti: 1/8 1320 m
Vlhkost: 44%
Karlovy Vary (K.Vary) 17.08.2018 09:00 UTC Zobrazit data
Místo: Karlovy Vary
Teplota: 25 °C (pocitová: 26 °C)
Vítr: 3 m/s z(e) 300°
Počasí: skorojasno
Dohlednost: 50 km
Zákl. oblačnosti: 1/8 1500 m
Vlhkost: 42%
Kocelovice (Kocelovice) 17.08.2018 09:00 UTC Zobrazit data
Místo: Kocelovice
Teplota: 25 °C (pocitová: 26 °C)
Vítr: 3 m/s z(e) 140°
Počasí: skorojasno
Dohlednost: 75 km
Zákl. oblačnosti: 1/8 1800 m
Vlhkost: 39%
Kopisty (Kopisty) 17.08.2018 09:00 UTC Zobrazit data
Místo: Kopisty
Teplota: 26 °C (pocitová: 27.6 °C)
Vítr: 1 m/s z(e) 110°
Počasí: oblačno
Dohlednost: 35 km
Zákl. oblačnosti: 1/8 1500 m;4/8 9300 m
Vlhkost: 42%
Kostelní Myslová (K.Myslova) 17.08.2018 09:00 UTC Zobrazit data
Místo: Kostelní Myslová
Teplota: 25 °C (pocitová: 26 °C)
Vítr: 3 m/s z(e) 140°
Počasí: skorojasno
Dohlednost: 40 km
Zákl. oblačnosti: 1/8 1380 m
Vlhkost: 42%
Křešín - Kramolín (Kramolin) 17.08.2018 09:00 UTC Zobrazit data
Místo: Křešín - Kramolín
Teplota: 24 °C (pocitová: 24.9 °C)
Vítr: 2 m/s z(e) 0°
Počasí: skorojasno
Dohlednost: 35 km
Zákl. oblačnosti: 1/8 1200 m
Vlhkost: 44%
Kuchařovice - Znojmo (Kucharovic) 17.08.2018 09:00 UTC Zobrazit data
Místo: Kuchařovice - Znojmo
Teplota: 26 °C (pocitová: 27.5 °C)
Vítr: 2 m/s z(e) 0°
Počasí: skorojasno
Dohlednost: 45 km
Zákl. oblačnosti: 1/8 1500 m
Vlhkost: 42%
Liberec (Liberec) 17.08.2018 09:00 UTC Zobrazit data
Místo: Liberec
Teplota: 26 °C (pocitová: 27.5 °C)
Vítr: 2 m/s z(e) 120°
Počasí: skorojasno
Dohlednost: 40 km
Zákl. oblačnosti: 2/8 6000 m
Vlhkost: 34%
Luká (Luka) 17.08.2018 09:00 UTC Zobrazit data
Místo: Luká
Teplota: 25 °C (pocitová: 26.2 °C)
Vítr: 2 m/s z(e) 0°
Počasí: slunečno
Dohlednost: 70 km
Zákl. oblačnosti: N/A
Vlhkost: 39%
Lysá Hora (Lysa Hora) 17.08.2018 09:00 UTC Zobrazit data
Místo: Lysá Hora
Teplota: 19 °C (pocitová: 18.5 °C)
Vítr: 2 m/s z(e) 0°
Počasí: oblačno
Dohlednost: 75 km
Zákl. oblačnosti: 3/8 390 m
Vlhkost: 60%
Milešovka (Milesovka) 17.08.2018 09:00 UTC Zobrazit data
Místo: Milešovka
Teplota: 24 °C (pocitová: 25.2 °C)
Vítr: 1 m/s z(e) 240°
Počasí: oblačno
Dohlednost: 55 km
Zákl. oblačnosti: 1/8 1380 m;3/8 9000 m
Vlhkost: 47%
Mošnov (Ostrava/Mo) 17.08.2018 09:00 UTC Zobrazit data
Místo: Mošnov
Teplota: 26 °C (pocitová: 27.5 °C)
Vítr: 2 m/s z(e) 0°
Počasí: skorojasno
Dohlednost: 25 km
Zákl. oblačnosti: 2/8 1410 m
Vlhkost: 48%
Náměšť nad Oslavou (Namest n/O) 17.08.2018 09:00 UTC Zobrazit data
Místo: Náměšť nad Oslavou
Teplota: 24 °C (pocitová: 24.7 °C)
Vítr: 3 m/s z(e) 150°
Počasí: skorojasno
Dohlednost: 20 km
Zákl. oblačnosti: 1/8 1500 m
Vlhkost: 44%
Pardubice (Pardubice) 17.08.2018 09:00 UTC Zobrazit data
Místo: Pardubice
Teplota: 27 °C (pocitová: 28.8 °C)
Vítr: 1 m/s z(e) 20°
Počasí: skorojasno
Dohlednost: 20 km
Zákl. oblačnosti: 1/8 1500 m
Vlhkost: 39%
Pec pod Sněžkou (Pec p.Snez) 17.08.2018 09:00 UTC Zobrazit data
Místo: Pec pod Sněžkou
Teplota: 21 °C (pocitová: 20.2 °C)
Vítr: 5 m/s z(e) 190°
Počasí: oblačno
Dohlednost: 20 km
Zákl. oblačnosti: 3/8 930 m
Vlhkost: 50%
Plzeň město - Mikulka (Plzen/Miku) 17.08.2018 09:00 UTC Zobrazit data
Místo: Plzeň město - Mikulka
Teplota: 26 °C (pocitová: 27.6 °C)
Vítr: 1 m/s z(e) 0°
Počasí: skorojasno
Dohlednost: 60 km
Zákl. oblačnosti: 1/8 1500 m
Vlhkost: 39%
Polom (Polom) 17.08.2018 09:00 UTC Zobrazit data
Místo: Polom
Teplota: 23 °C (pocitová: 23.6 °C)
Vítr: 2 m/s z(e) 0°
Počasí: skorojasno
Dohlednost: 30 km
Zákl. oblačnosti: 1/8 1200 m
Vlhkost: 47%
Praha - Karlov (Praha/Kar) 17.08.2018 09:00 UTC Zobrazit data
Místo: Praha - Karlov
Teplota: 27 °C (pocitová: 28.8 °C)
Vítr: 1 m/s z(e) 0°
Počasí: skorojasno
Dohlednost: 35 km
Zákl. oblačnosti: 1/8 1500 m
Vlhkost: 37%
Praha - Kbely (Praha/Kbe) 17.08.2018 09:00 UTC Zobrazit data
Místo: Praha - Kbely
Teplota: 26 °C (pocitová: 27.6 °C)
Vítr: 1 m/s z(e) 250°
Počasí: slunečno
Dohlednost: 25 km
Zákl. oblačnosti: N/A
Vlhkost: 42%
Praha - Libuš (Praha/Lib) 17.08.2018 09:00 UTC Zobrazit data
Místo: Praha - Libuš
Teplota: 26 °C (pocitová: 27.5 °C)
Vítr: 2 m/s z(e) 0°
Počasí: skorojasno
Dohlednost: 50 km
Zákl. oblačnosti: 1/8 1500 m
Vlhkost: 39%
Praha - Ruzyně (Praha/Ru) 17.08.2018 09:00 UTC Zobrazit data
Místo: Praha - Ruzyně
Teplota: 27 °C (pocitová: 28.7 °C)
Vítr: 2 m/s z(e) 0°
Počasí: skorojasno
Dohlednost: 50 km
Zákl. oblačnosti: 1/8 1800 m
Vlhkost: 34%
Přibyslav (Pribyslav) 17.08.2018 09:00 UTC Zobrazit data
Místo: Přibyslav
Teplota: 26 °C (pocitová: 27.5 °C)
Vítr: 2 m/s z(e) 80°
Počasí: skorojasno
Dohlednost: 35 km
Zákl. oblačnosti: 2/8 1800 m
Vlhkost: 39%
Přimda (Primda) 17.08.2018 09:00 UTC Zobrazit data
Místo: Přimda
Teplota: 23 °C (pocitová: 23.6 °C)
Vítr: 2 m/s z(e) 70°
Počasí: skorojasno
Dohlednost: 60 km
Zákl. oblačnosti: 1/8 1500 m
Vlhkost: 41%
Šerák (Serak) 17.08.2018 09:00 UTC Zobrazit data
Místo: Šerák
Teplota: 18 °C (pocitová: 17.2 °C)
Vítr: 2 m/s z(e) 260°
Počasí: skorojasno
Dohlednost: 75 km
Zákl. oblačnosti: 1/8 960 m
Vlhkost: 52%
Svratouch (Svratouch) 17.08.2018 09:00 UTC Zobrazit data
Místo: Svratouch
Teplota: 24 °C (pocitová: 24.5 °C)
Vítr: 4 m/s z(e) 170°
Počasí: oblačno
Dohlednost: 50 km
Zákl. oblačnosti: 3/8 1500 m
Vlhkost: 36%
Temelín (Temelin) 17.08.2018 09:00 UTC Zobrazit data
Místo: Temelín
Teplota: 23 °C (pocitová: 23.6 °C)
Vítr: 2 m/s z(e) 170°
Počasí: skorojasno
Dohlednost: 45 km
Zákl. oblačnosti: 1/8 1200 m
Vlhkost: 53%
Ústí nad Labem - Kočkov (Usti n/L) 17.08.2018 09:00 UTC Zobrazit data
Místo: Ústí nad Labem - Kočkov
Teplota: 24 °C (pocitová: 24.9 °C)
Vítr: 2 m/s z(e) 250°
Počasí: skoro zataženo
Dohlednost: 50 km
Zákl. oblačnosti: 1/8 1200 m;5/8 7200 m
Vlhkost: 41%
Ústí nad Orlicí (Usti n/O) 17.08.2018 09:00 UTC Zobrazit data
Místo: Ústí nad Orlicí
Teplota: 26 °C (pocitová: 27.5 °C)
Vítr: 2 m/s z(e) 0°
Počasí: skorojasno
Dohlednost: 55 km
Zákl. oblačnosti: 2/8 1500 m
Vlhkost: 42%
Aalborg (EKYT) 19.08.2018 08:50 UTC Zobrazit METAR
EKYT 190850Z 25009KT 9999 -SHRA FEW007 BKN026 17/16 Q1016
Aarhus (EKAH) 07.08.2018 15:50 UTC Zobrazit METAR
EKAH 071550Z 14006KT 100V200 CAVOK 29/15 Q1011
Abu Dhabi (OMAA) 19.08.2018 12:00 UTC Zobrazit METAR
OMAA 191200Z 32011KT 290V350 8000 NSC 38/27 Q0995 NOSIG
Abuja (DNAA) 19.08.2018 12:00 UTC Zobrazit METAR
DNAA 191200Z 30004KT 350V350 9999 BKN009 25/20 Q1016 NOSIG
Accra (DGAA) 19.08.2018 12:00 UTC Zobrazit METAR
DGAA 191200Z 20010KT 9999 BKN027 BKN040 28/23 Q1015 NOSIG
Addis Abeba (HAAB) 19.08.2018 12:00 UTC Zobrazit METAR
HAAB 191200Z 22010KT 9999 SCT025 FEW080 21/13 Q1023
Agana (PGUM) 19.08.2018 11:54 UTC Zobrazit METAR
PGUM 191154Z 25016G25KT 5SM -RA BR FEW011 BKN050 OVC070 25/25 A2981 RMK AO2 PK WND 24030/1058 SLP085 P0014 60041 70112 T02500250 10267 20250 53005 $
Ahe Island (NTHE) Zatím nenačteno  
Akureyri (BIAR) 19.08.2018 12:00 UTC Zobrazit METAR
BIAR 191200Z VRB02KT CAVOK 16/04 Q1011
Almaty (UAAA) Zatím nenačteno  
Amman (OJAM) 19.08.2018 12:00 UTC Zobrazit METAR
OJAM 191200Z 27012KT 5000 HZ NSC 30/13 Q1010 NOSIG
Amsterdam (EHAM) 19.08.2018 11:55 UTC Zobrazit METAR
EHAM 191155Z 21016KT 180V240 9999 FEW020 BKN025 21/16 Q1018 NOSIG
Antananarivo (FMMI) 19.08.2018 12:00 UTC Zobrazit METAR
FMMI 191200Z 10013KT 9999 BKN023 21/10 Q1024 NOSIG
1 2 3 ... 9 Další
Reklama

Počasí na Váš email

Emaily jsou bez reklamy a bez spamu



Odhlásit newsletter

Reklama


Lunární kalendář

  • 26.08.
  • 03.09.
  • 09.09.
  • 17.09.



Slunečno.cz na Google+

Reklama


Reklama
Povinné ručení
Reklama




Reklama